sensor_id;sensor_type;location;lat;lon;timestamp;P1;durP1;ratioP1;P2;durP2;ratioP2
75216;SDS011;63800;51.972;5.682;2023-01-16T00:02:33;1.60;;;1.50;;
75216;SDS011;63800;51.972;5.682;2023-01-16T00:04:59;3.03;;;1.58;;
75216;SDS011;63800;51.972;5.682;2023-01-16T00:07:24;3.65;;;2.30;;
75216;SDS011;63800;51.972;5.682;2023-01-16T00:09:50;3.42;;;2.22;;
75216;SDS011;63800;51.972;5.682;2023-01-16T00:12:15;3.90;;;2.50;;
75216;SDS011;63800;51.972;5.682;2023-01-16T00:14:40;5.65;;;3.40;;
75216;SDS011;63800;51.972;5.682;2023-01-16T00:17:06;4.63;;;3.80;;
75216;SDS011;63800;51.972;5.682;2023-01-16T00:19:31;6.05;;;3.90;;
75216;SDS011;63800;51.972;5.682;2023-01-16T00:21:57;5.20;;;4.45;;
75216;SDS011;63800;51.972;5.682;2023-01-16T00:24:22;7.53;;;4.53;;
75216;SDS011;63800;51.972;5.682;2023-01-16T00:26:51;5.32;;;4.63;;
75216;SDS011;63800;51.972;5.682;2023-01-16T00:29:16;6.13;;;4.45;;
75216;SDS011;63800;51.972;5.682;2023-01-16T00:31:42;7.13;;;5.22;;
75216;SDS011;63800;51.972;5.682;2023-01-16T00:34:07;7.90;;;5.03;;
75216;SDS011;63800;51.972;5.682;2023-01-16T00:36:33;7.60;;;4.63;;
75216;SDS011;63800;51.972;5.682;2023-01-16T00:38:58;7.47;;;5.18;;
75216;SDS011;63800;51.972;5.682;2023-01-16T00:41:24;8.48;;;6.15;;
75216;SDS011;63800;51.972;5.682;2023-01-16T00:43:49;10.60;;;6.75;;
75216;SDS011;63800;51.972;5.682;2023-01-16T00:46:15;9.90;;;6.35;;
75216;SDS011;63800;51.972;5.682;2023-01-16T00:48:40;9.45;;;6.53;;
75216;SDS011;63800;51.972;5.682;2023-01-16T00:51:06;10.43;;;6.88;;
75216;SDS011;63800;51.972;5.682;2023-01-16T00:53:31;9.60;;;6.30;;
75216;SDS011;63800;51.972;5.682;2023-01-16T00:55:57;11.18;;;6.60;;
75216;SDS011;63800;51.972;5.682;2023-01-16T00:58:22;10.68;;;6.75;;
75216;SDS011;63800;51.972;5.682;2023-01-16T01:00:48;9.55;;;6.72;;
75216;SDS011;63800;51.972;5.682;2023-01-16T01:03:14;10.75;;;6.50;;
75216;SDS011;63800;51.972;5.682;2023-01-16T01:05:40;9.05;;;6.85;;
75216;SDS011;63800;51.972;5.682;2023-01-16T01:08:05;8.85;;;6.45;;
75216;SDS011;63800;51.972;5.682;2023-01-16T01:10:31;9.95;;;6.28;;
75216;SDS011;63800;51.972;5.682;2023-01-16T01:12:57;9.35;;;6.40;;
75216;SDS011;63800;51.972;5.682;2023-01-16T01:15:22;10.85;;;7.45;;
75216;SDS011;63800;51.972;5.682;2023-01-16T01:17:48;15.05;;;7.72;;
75216;SDS011;63800;51.972;5.682;2023-01-16T01:20:14;12.98;;;7.90;;
75216;SDS011;63800;51.972;5.682;2023-01-16T01:22:40;12.48;;;7.70;;
75216;SDS011;63800;51.972;5.682;2023-01-16T01:25:05;15.75;;;8.23;;
75216;SDS011;63800;51.972;5.682;2023-01-16T01:27:31;11.70;;;8.05;;
75216;SDS011;63800;51.972;5.682;2023-01-16T01:29:56;15.73;;;8.30;;
75216;SDS011;63800;51.972;5.682;2023-01-16T01:32:22;16.38;;;9.25;;
75216;SDS011;63800;51.972;5.682;2023-01-16T01:34:47;11.35;;;7.65;;
75216;SDS011;63800;51.972;5.682;2023-01-16T01:37:13;13.27;;;7.35;;
75216;SDS011;63800;51.972;5.682;2023-01-16T01:39:38;10.50;;;7.05;;
75216;SDS011;63800;51.972;5.682;2023-01-16T01:42:04;10.05;;;6.10;;
75216;SDS011;63800;51.972;5.682;2023-01-16T01:44:49;9.35;;;6.40;;
75216;SDS011;63800;51.972;5.682;2023-01-16T01:47:18;11.75;;;6.20;;
75216;SDS011;63800;51.972;5.682;2023-01-16T01:49:47;9.13;;;5.15;;
75216;SDS011;63800;51.972;5.682;2023-01-16T01:52:14;8.93;;;5.15;;
75216;SDS011;63800;51.972;5.682;2023-01-16T01:54:42;11.68;;;5.97;;
75216;SDS011;63800;51.972;5.682;2023-01-16T01:57:18;9.68;;;4.63;;
75216;SDS011;63800;51.972;5.682;2023-01-16T02:00:03;11.55;;;4.95;;
75216;SDS011;63800;51.972;5.682;2023-01-16T02:02:35;11.35;;;5.47;;
75216;SDS011;63800;51.972;5.682;2023-01-16T02:05:05;10.85;;;4.68;;
75216;SDS011;63800;51.972;5.682;2023-01-16T02:07:33;8.98;;;4.82;;
75216;SDS011;63800;51.972;5.682;2023-01-16T02:10:02;8.05;;;4.18;;
75216;SDS011;63800;51.972;5.682;2023-01-16T02:12:35;9.32;;;4.32;;
75216;SDS011;63800;51.972;5.682;2023-01-16T02:15:01;6.90;;;4.28;;
75216;SDS011;63800;51.972;5.682;2023-01-16T02:17:27;6.35;;;3.78;;
75216;SDS011;63800;51.972;5.682;2023-01-16T02:39:43;3.92;;;2.58;;
75216;SDS011;63800;51.972;5.682;2023-01-16T02:55:55;4.05;;;2.60;;
75216;SDS011;63800;51.972;5.682;2023-01-16T02:58:27;3.05;;;1.70;;
75216;SDS011;63800;51.972;5.682;2023-01-16T03:00:57;6.95;;;2.20;;
75216;SDS011;63800;51.972;5.682;2023-01-16T03:05:52;3.10;;;1.50;;
75216;SDS011;63800;51.972;5.682;2023-01-16T03:08:42;3.17;;;1.95;;
75216;SDS011;63800;51.972;5.682;2023-01-16T03:11:16;3.72;;;1.95;;
75216;SDS011;63800;51.972;5.682;2023-01-16T03:14:02;6.95;;;2.25;;
75216;SDS011;63800;51.972;5.682;2023-01-16T03:19:24;5.93;;;1.80;;
75216;SDS011;63800;51.972;5.682;2023-01-16T03:22:37;2.72;;;1.52;;
75216;SDS011;63800;51.972;5.682;2023-01-16T03:28:02;2.78;;;1.60;;
75216;SDS011;63800;51.972;5.682;2023-01-16T03:31:33;2.88;;;1.52;;
75216;SDS011;63800;51.972;5.682;2023-01-16T03:36:32;2.45;;;1.40;;
75216;SDS011;63800;51.972;5.682;2023-01-16T03:39:03;4.22;;;1.63;;
75216;SDS011;63800;51.972;5.682;2023-01-16T03:41:31;1.92;;;1.17;;
75216;SDS011;63800;51.972;5.682;2023-01-16T03:44:01;3.30;;;2.13;;
75216;SDS011;63800;51.972;5.682;2023-01-16T03:46:31;3.97;;;1.80;;
75216;SDS011;63800;51.972;5.682;2023-01-16T03:49:08;4.10;;;1.50;;
75216;SDS011;63800;51.972;5.682;2023-01-16T03:51:39;2.00;;;1.35;;
75216;SDS011;63800;51.972;5.682;2023-01-16T03:59:49;3.85;;;1.98;;
75216;SDS011;63800;51.972;5.682;2023-01-16T04:02:20;8.20;;;2.05;;
75216;SDS011;63800;51.972;5.682;2023-01-16T04:04:57;2.45;;;1.65;;
75216;SDS011;63800;51.972;5.682;2023-01-16T04:07:36;3.28;;;1.73;;
75216;SDS011;63800;51.972;5.682;2023-01-16T04:10:12;4.07;;;1.65;;
75216;SDS011;63800;51.972;5.682;2023-01-16T04:12:46;3.75;;;1.52;;
75216;SDS011;63800;51.972;5.682;2023-01-16T04:15:16;4.82;;;1.75;;
75216;SDS011;63800;51.972;5.682;2023-01-16T04:17:43;4.53;;;1.60;;
75216;SDS011;63800;51.972;5.682;2023-01-16T04:20:09;3.22;;;1.50;;
75216;SDS011;63800;51.972;5.682;2023-01-16T04:22:35;2.22;;;1.42;;
75216;SDS011;63800;51.972;5.682;2023-01-16T04:25:02;3.03;;;1.42;;
75216;SDS011;63800;51.972;5.682;2023-01-16T04:27:30;3.42;;;1.30;;
75216;SDS011;63800;51.972;5.682;2023-01-16T04:29:56;2.38;;;1.48;;
75216;SDS011;63800;51.972;5.682;2023-01-16T04:32:21;2.67;;;1.80;;
75216;SDS011;63800;51.972;5.682;2023-01-16T04:34:50;2.38;;;1.58;;
75216;SDS011;63800;51.972;5.682;2023-01-16T04:37:16;4.60;;;1.58;;
75216;SDS011;63800;51.972;5.682;2023-01-16T04:39:42;4.63;;;1.50;;
75216;SDS011;63800;51.972;5.682;2023-01-16T04:42:08;4.95;;;1.80;;
75216;SDS011;63800;51.972;5.682;2023-01-16T04:44:34;3.53;;;1.52;;
75216;SDS011;63800;51.972;5.682;2023-01-16T04:47:00;7.60;;;2.10;;
75216;SDS011;63800;51.972;5.682;2023-01-16T04:49:26;4.45;;;1.88;;
75216;SDS011;63800;51.972;5.682;2023-01-16T04:51:51;5.25;;;1.65;;
75216;SDS011;63800;51.972;5.682;2023-01-16T04:54:18;4.25;;;1.50;;
75216;SDS011;63800;51.972;5.682;2023-01-16T04:56:44;3.92;;;1.95;;
75216;SDS011;63800;51.972;5.682;2023-01-16T04:59:10;2.08;;;1.77;;
75216;SDS011;63800;51.972;5.682;2023-01-16T05:01:37;4.43;;;1.67;;
75216;SDS011;63800;51.972;5.682;2023-01-16T05:04:04;4.88;;;1.65;;
75216;SDS011;63800;51.972;5.682;2023-01-16T05:06:30;5.40;;;1.77;;
75216;SDS011;63800;51.972;5.682;2023-01-16T05:08:57;3.08;;;1.60;;
75216;SDS011;63800;51.972;5.682;2023-01-16T05:11:22;2.72;;;1.35;;
75216;SDS011;63800;51.972;5.682;2023-01-16T05:13:48;5.70;;;2.10;;
75216;SDS011;63800;51.972;5.682;2023-01-16T05:16:13;5.50;;;2.28;;
75216;SDS011;63800;51.972;5.682;2023-01-16T05:18:38;2.83;;;1.50;;
75216;SDS011;63800;51.972;5.682;2023-01-16T05:21:04;5.40;;;1.83;;
75216;SDS011;63800;51.972;5.682;2023-01-16T05:23:30;2.63;;;1.50;;
75216;SDS011;63800;51.972;5.682;2023-01-16T05:25:58;2.95;;;1.40;;
75216;SDS011;63800;51.972;5.682;2023-01-16T05:28:24;6.72;;;1.55;;
75216;SDS011;63800;51.972;5.682;2023-01-16T05:30:50;3.63;;;1.80;;
75216;SDS011;63800;51.972;5.682;2023-01-16T05:33:16;3.92;;;1.60;;
75216;SDS011;63800;51.972;5.682;2023-01-16T05:35:41;3.83;;;1.88;;
75216;SDS011;63800;51.972;5.682;2023-01-16T05:38:07;2.33;;;1.58;;
75216;SDS011;63800;51.972;5.682;2023-01-16T05:40:33;3.00;;;1.63;;
75216;SDS011;63800;51.972;5.682;2023-01-16T05:42:58;4.75;;;1.70;;
75216;SDS011;63800;51.972;5.682;2023-01-16T05:45:23;4.97;;;1.55;;
75216;SDS011;63800;51.972;5.682;2023-01-16T05:47:49;2.55;;;1.40;;
75216;SDS011;63800;51.972;5.682;2023-01-16T05:50:14;2.10;;;1.35;;
75216;SDS011;63800;51.972;5.682;2023-01-16T05:52:40;2.65;;;1.30;;
75216;SDS011;63800;51.972;5.682;2023-01-16T05:55:05;3.55;;;1.30;;
75216;SDS011;63800;51.972;5.682;2023-01-16T05:57:32;2.63;;;1.55;;
75216;SDS011;63800;51.972;5.682;2023-01-16T05:59:57;3.70;;;1.52;;
75216;SDS011;63800;51.972;5.682;2023-01-16T06:02:22;4.28;;;1.50;;
75216;SDS011;63800;51.972;5.682;2023-01-16T06:04:48;1.67;;;1.55;;
75216;SDS011;63800;51.972;5.682;2023-01-16T06:07:14;2.65;;;1.30;;
75216;SDS011;63800;51.972;5.682;2023-01-16T06:09:39;3.80;;;1.50;;
75216;SDS011;63800;51.972;5.682;2023-01-16T06:12:05;3.38;;;1.67;;
75216;SDS011;63800;51.972;5.682;2023-01-16T06:14:33;4.75;;;1.60;;
75216;SDS011;63800;51.972;5.682;2023-01-16T06:16:59;4.50;;;1.58;;
75216;SDS011;63800;51.972;5.682;2023-01-16T06:19:24;1.92;;;1.30;;
75216;SDS011;63800;51.972;5.682;2023-01-16T06:21:50;3.83;;;1.55;;
75216;SDS011;63800;51.972;5.682;2023-01-16T06:24:15;1.75;;;1.42;;
75216;SDS011;63800;51.972;5.682;2023-01-16T06:26:40;2.67;;;1.35;;
75216;SDS011;63800;51.972;5.682;2023-01-16T06:29:06;3.85;;;1.52;;
75216;SDS011;63800;51.972;5.682;2023-01-16T06:31:33;2.63;;;1.35;;
75216;SDS011;63800;51.972;5.682;2023-01-16T06:33:58;5.05;;;1.70;;
75216;SDS011;63800;51.972;5.682;2023-01-16T06:36:23;3.17;;;1.45;;
75216;SDS011;63800;51.972;5.682;2023-01-16T06:38:49;2.13;;;1.50;;
75216;SDS011;63800;51.972;5.682;2023-01-16T06:41:14;3.38;;;1.50;;
75216;SDS011;63800;51.972;5.682;2023-01-16T06:43:40;1.45;;;1.10;;
75216;SDS011;63800;51.972;5.682;2023-01-16T06:46:05;3.70;;;1.58;;
75216;SDS011;63800;51.972;5.682;2023-01-16T06:48:30;2.83;;;1.52;;
75216;SDS011;63800;51.972;5.682;2023-01-16T06:50:56;3.13;;;1.85;;
75216;SDS011;63800;51.972;5.682;2023-01-16T06:53:24;4.07;;;1.75;;
75216;SDS011;63800;51.972;5.682;2023-01-16T06:55:49;8.05;;;2.00;;
75216;SDS011;63800;51.972;5.682;2023-01-16T06:58:15;6.00;;;1.60;;
75216;SDS011;63800;51.972;5.682;2023-01-16T07:00:40;4.65;;;2.00;;
75216;SDS011;63800;51.972;5.682;2023-01-16T07:03:06;4.05;;;1.38;;
75216;SDS011;63800;51.972;5.682;2023-01-16T07:05:31;2.10;;;1.42;;
75216;SDS011;63800;51.972;5.682;2023-01-16T07:07:57;4.72;;;1.50;;
75216;SDS011;63800;51.972;5.682;2023-01-16T07:10:23;3.00;;;1.38;;
75216;SDS011;63800;51.972;5.682;2023-01-16T07:12:49;2.67;;;1.48;;
75216;SDS011;63800;51.972;5.682;2023-01-16T07:15:16;4.85;;;1.65;;
75216;SDS011;63800;51.972;5.682;2023-01-16T07:18:01;1.75;;;1.27;;
75216;SDS011;63800;51.972;5.682;2023-01-16T07:20:47;4.25;;;1.60;;
75216;SDS011;63800;51.972;5.682;2023-01-16T07:23:36;3.60;;;1.75;;
75216;SDS011;63800;51.972;5.682;2023-01-16T07:26:04;3.10;;;1.48;;
75216;SDS011;63800;51.972;5.682;2023-01-16T07:28:32;5.80;;;1.40;;
75216;SDS011;63800;51.972;5.682;2023-01-16T07:30:58;3.15;;;1.38;;
75216;SDS011;63800;51.972;5.682;2023-01-16T07:33:28;1.77;;;1.23;;
75216;SDS011;63800;51.972;5.682;2023-01-16T07:35:54;4.05;;;1.63;;
75216;SDS011;63800;51.972;5.682;2023-01-16T07:38:20;2.80;;;1.40;;
75216;SDS011;63800;51.972;5.682;2023-01-16T07:40:46;3.67;;;1.60;;
75216;SDS011;63800;51.972;5.682;2023-01-16T07:43:11;1.95;;;1.40;;
75216;SDS011;63800;51.972;5.682;2023-01-16T07:45:37;3.53;;;1.70;;
75216;SDS011;63800;51.972;5.682;2023-01-16T08:04:02;2.60;;;1.90;;
75216;SDS011;63800;51.972;5.682;2023-01-16T08:06:27;3.38;;;1.98;;
75216;SDS011;63800;51.972;5.682;2023-01-16T08:08:53;3.17;;;1.83;;
75216;SDS011;63800;51.972;5.682;2023-01-16T08:11:18;3.70;;;1.95;;
75216;SDS011;63800;51.972;5.682;2023-01-16T08:14:04;5.80;;;2.70;;
75216;SDS011;63800;51.972;5.682;2023-01-16T08:16:31;4.78;;;2.03;;
75216;SDS011;63800;51.972;5.682;2023-01-16T08:18:57;3.58;;;1.80;;
75216;SDS011;63800;51.972;5.682;2023-01-16T08:21:22;3.53;;;1.70;;
75216;SDS011;63800;51.972;5.682;2023-01-16T08:23:48;4.40;;;1.75;;
75216;SDS011;63800;51.972;5.682;2023-01-16T08:26:14;3.33;;;1.73;;
75216;SDS011;63800;51.972;5.682;2023-01-16T08:28:39;2.97;;;1.73;;
75216;SDS011;63800;51.972;5.682;2023-01-16T08:31:05;3.97;;;1.65;;
75216;SDS011;63800;51.972;5.682;2023-01-16T08:33:40;3.85;;;1.67;;
75216;SDS011;63800;51.972;5.682;2023-01-16T08:36:07;2.25;;;1.50;;
75216;SDS011;63800;51.972;5.682;2023-01-16T08:38:34;2.92;;;1.42;;
75216;SDS011;63800;51.972;5.682;2023-01-16T08:41:00;2.78;;;1.65;;
75216;SDS011;63800;51.972;5.682;2023-01-16T08:43:26;2.78;;;1.67;;
75216;SDS011;63800;51.972;5.682;2023-01-16T08:46:17;3.28;;;1.65;;
75216;SDS011;63800;51.972;5.682;2023-01-16T08:49:04;2.60;;;1.45;;
75216;SDS011;63800;51.972;5.682;2023-01-16T08:51:52;2.58;;;1.77;;
75216;SDS011;63800;51.972;5.682;2023-01-16T08:54:17;2.45;;;1.50;;
75216;SDS011;63800;51.972;5.682;2023-01-16T08:56:43;2.83;;;1.42;;
75216;SDS011;63800;51.972;5.682;2023-01-16T08:59:09;4.05;;;1.92;;
75216;SDS011;63800;51.972;5.682;2023-01-16T09:01:35;2.55;;;1.50;;
75216;SDS011;63800;51.972;5.682;2023-01-16T09:04:02;3.30;;;1.60;;
75216;SDS011;63800;51.972;5.682;2023-01-16T09:06:27;4.97;;;2.20;;
75216;SDS011;63800;51.972;5.682;2023-01-16T09:08:52;3.60;;;1.85;;
75216;SDS011;63800;51.972;5.682;2023-01-16T09:11:18;2.13;;;1.85;;
75216;SDS011;63800;51.972;5.682;2023-01-16T09:14:02;6.47;;;2.00;;
75216;SDS011;63800;51.972;5.682;2023-01-16T09:16:27;4.15;;;1.85;;
75216;SDS011;63800;51.972;5.682;2023-01-16T09:18:53;4.95;;;2.10;;
75216;SDS011;63800;51.972;5.682;2023-01-16T09:21:18;4.32;;;2.17;;
75216;SDS011;63800;51.972;5.682;2023-01-16T09:23:45;3.47;;;2.10;;
75216;SDS011;63800;51.972;5.682;2023-01-16T09:26:11;6.65;;;2.28;;
75216;SDS011;63800;51.972;5.682;2023-01-16T09:28:36;5.22;;;2.50;;
75216;SDS011;63800;51.972;5.682;2023-01-16T09:31:02;2.55;;;1.92;;
75216;SDS011;63800;51.972;5.682;2023-01-16T09:33:28;2.80;;;1.95;;
75216;SDS011;63800;51.972;5.682;2023-01-16T09:35:53;3.42;;;2.08;;
75216;SDS011;63800;51.972;5.682;2023-01-16T09:38:19;4.88;;;2.10;;
75216;SDS011;63800;51.972;5.682;2023-01-16T09:40:51;4.90;;;1.90;;
75216;SDS011;63800;51.972;5.682;2023-01-16T09:43:33;3.40;;;2.50;;
75216;SDS011;63800;51.972;5.682;2023-01-16T09:46:18;3.17;;;1.85;;
75216;SDS011;63800;51.972;5.682;2023-01-16T09:51:24;3.28;;;2.00;;
75216;SDS011;63800;51.972;5.682;2023-01-16T09:53:56;4.00;;;2.05;;
75216;SDS011;63800;51.972;5.682;2023-01-16T09:56:43;4.15;;;2.15;;
75216;SDS011;63800;51.972;5.682;2023-01-16T09:59:40;3.22;;;2.00;;
75216;SDS011;63800;51.972;5.682;2023-01-16T10:04:57;3.25;;;2.30;;
75216;SDS011;63800;51.972;5.682;2023-01-16T10:13:22;2.78;;;2.08;;
75216;SDS011;63800;51.972;5.682;2023-01-16T10:26:57;1.92;;;1.80;;
75216;SDS011;63800;51.972;5.682;2023-01-16T10:29:25;2.08;;;1.60;;
75216;SDS011;63800;51.972;5.682;2023-01-16T10:31:57;3.03;;;1.67;;
75216;SDS011;63800;51.972;5.682;2023-01-16T10:37:16;2.20;;;1.63;;
75216;SDS011;63800;51.972;5.682;2023-01-16T10:39:43;3.00;;;2.15;;
75216;SDS011;63800;51.972;5.682;2023-01-16T10:42:12;3.40;;;1.83;;
75216;SDS011;63800;51.972;5.682;2023-01-16T10:47:48;2.05;;;1.30;;
75216;SDS011;63800;51.972;5.682;2023-01-16T10:50:36;2.10;;;1.70;;
75216;SDS011;63800;51.972;5.682;2023-01-16T10:53:03;2.85;;;1.88;;
75216;SDS011;63800;51.972;5.682;2023-01-16T10:55:30;3.50;;;1.73;;
75216;SDS011;63800;51.972;5.682;2023-01-16T10:57:58;3.85;;;1.60;;
75216;SDS011;63800;51.972;5.682;2023-01-16T11:00:31;3.78;;;1.98;;
75216;SDS011;63800;51.972;5.682;2023-01-16T11:03:09;3.08;;;1.70;;
75216;SDS011;63800;51.972;5.682;2023-01-16T11:05:39;2.40;;;2.05;;
75216;SDS011;63800;51.972;5.682;2023-01-16T11:08:06;4.20;;;2.28;;
75216;SDS011;63800;51.972;5.682;2023-01-16T11:10:37;3.70;;;1.77;;
75216;SDS011;63800;51.972;5.682;2023-01-16T11:13:05;1.67;;;1.58;;
75216;SDS011;63800;51.972;5.682;2023-01-16T11:16:00;2.22;;;1.60;;
75216;SDS011;63800;51.972;5.682;2023-01-16T11:19:20;3.25;;;1.50;;
75216;SDS011;63800;51.972;5.682;2023-01-16T11:21:49;1.58;;;1.48;;
75216;SDS011;63800;51.972;5.682;2023-01-16T11:24:19;3.55;;;2.00;;
75216;SDS011;63800;51.972;5.682;2023-01-16T11:26:54;1.42;;;1.30;;
75216;SDS011;63800;51.972;5.682;2023-01-16T11:29:22;2.88;;;1.67;;
75216;SDS011;63800;51.972;5.682;2023-01-16T11:31:52;1.65;;;1.52;;
75216;SDS011;63800;51.972;5.682;2023-01-16T11:34:23;1.98;;;1.65;;
75216;SDS011;63800;51.972;5.682;2023-01-16T11:36:53;2.15;;;1.65;;
75216;SDS011;63800;51.972;5.682;2023-01-16T11:39:21;2.95;;;1.80;;
75216;SDS011;63800;51.972;5.682;2023-01-16T11:41:50;2.60;;;1.65;;
75216;SDS011;63800;51.972;5.682;2023-01-16T11:44:29;1.50;;;1.27;;
75216;SDS011;63800;51.972;5.682;2023-01-16T11:47:18;1.50;;;1.27;;
75216;SDS011;63800;51.972;5.682;2023-01-16T11:49:48;1.38;;;1.27;;
75216;SDS011;63800;51.972;5.682;2023-01-16T11:52:18;1.45;;;1.35;;
75216;SDS011;63800;51.972;5.682;2023-01-16T11:54:54;2.88;;;1.20;;
75216;SDS011;63800;51.972;5.682;2023-01-16T12:08:30;1.60;;;1.50;;
75216;SDS011;63800;51.972;5.682;2023-01-16T12:11:04;2.10;;;1.40;;
75216;SDS011;63800;51.972;5.682;2023-01-16T12:22:49;1.23;;;1.13;;
75216;SDS011;63800;51.972;5.682;2023-01-16T12:36:14;1.55;;;1.20;;
75216;SDS011;63800;51.972;5.682;2023-01-16T12:38:53;1.23;;;1.05;;
75216;SDS011;63800;51.972;5.682;2023-01-16T12:41:37;1.50;;;1.20;;
75216;SDS011;63800;51.972;5.682;2023-01-16T12:44:37;1.88;;;1.10;;
75216;SDS011;63800;51.972;5.682;2023-01-16T12:55:13;2.08;;;1.20;;
75216;SDS011;63800;51.972;5.682;2023-01-16T12:57:59;1.98;;;1.45;;
75216;SDS011;63800;51.972;5.682;2023-01-16T13:00:44;2.60;;;1.10;;
75216;SDS011;63800;51.972;5.682;2023-01-16T13:05:43;1.00;;;1.00;;
75216;SDS011;63800;51.972;5.682;2023-01-16T13:10:59;1.20;;;1.00;;
75216;SDS011;63800;51.972;5.682;2023-01-16T13:14:01;1.23;;;1.10;;
75216;SDS011;63800;51.972;5.682;2023-01-16T13:16:31;1.67;;;1.35;;
75216;SDS011;63800;51.972;5.682;2023-01-16T13:19:04;1.30;;;1.00;;
75216;SDS011;63800;51.972;5.682;2023-01-16T13:21:45;2.53;;;1.15;;
75216;SDS011;63800;51.972;5.682;2023-01-16T13:24:29;2.30;;;1.10;;
75216;SDS011;63800;51.972;5.682;2023-01-16T13:26:57;1.20;;;1.10;;
75216;SDS011;63800;51.972;5.682;2023-01-16T13:29:35;1.23;;;1.13;;
75216;SDS011;63800;51.972;5.682;2023-01-16T13:34:45;1.35;;;1.13;;
75216;SDS011;63800;51.972;5.682;2023-01-16T13:37:22;1.95;;;1.23;;
75216;SDS011;63800;51.972;5.682;2023-01-16T13:42:48;0.90;;;0.90;;
75216;SDS011;63800;51.972;5.682;2023-01-16T13:45:30;1.17;;;1.00;;
75216;SDS011;63800;51.972;5.682;2023-01-16T13:48:13;1.45;;;1.00;;
75216;SDS011;63800;51.972;5.682;2023-01-16T13:50:42;1.23;;;1.10;;
75216;SDS011;63800;51.972;5.682;2023-01-16T13:53:13;1.83;;;1.40;;
75216;SDS011;63800;51.972;5.682;2023-01-16T13:55:39;1.20;;;1.10;;
75216;SDS011;63800;51.972;5.682;2023-01-16T14:00:42;2.08;;;1.10;;
75216;SDS011;63800;51.972;5.682;2023-01-16T14:05:49;2.40;;;1.88;;
75216;SDS011;63800;51.972;5.682;2023-01-16T14:13:39;2.92;;;1.20;;
75216;SDS011;63800;51.972;5.682;2023-01-16T14:24:03;1.15;;;1.00;;
75216;SDS011;63800;51.972;5.682;2023-01-16T14:32:03;2.10;;;1.10;;
75216;SDS011;63800;51.972;5.682;2023-01-16T14:34:34;1.20;;;1.10;;
75216;SDS011;63800;51.972;5.682;2023-01-16T14:37:10;2.65;;;1.27;;
75216;SDS011;63800;51.972;5.682;2023-01-16T14:39:46;1.92;;;1.10;;
75216;SDS011;63800;51.972;5.682;2023-01-16T14:42:21;1.33;;;1.10;;
75216;SDS011;63800;51.972;5.682;2023-01-16T14:45:18;2.70;;;1.20;;
75216;SDS011;63800;51.972;5.682;2023-01-16T14:50:54;1.90;;;1.38;;
75216;SDS011;63800;51.972;5.682;2023-01-16T14:53:43;2.15;;;1.20;;
75216;SDS011;63800;51.972;5.682;2023-01-16T14:56:32;3.67;;;1.40;;
75216;SDS011;63800;51.972;5.682;2023-01-16T15:01:33;3.40;;;1.58;;
75216;SDS011;63800;51.972;5.682;2023-01-16T15:04:23;2.25;;;1.30;;
75216;SDS011;63800;51.972;5.682;2023-01-16T15:06:56;1.77;;;1.65;;
75216;SDS011;63800;51.972;5.682;2023-01-16T15:09:26;1.63;;;1.50;;
75216;SDS011;63800;51.972;5.682;2023-01-16T15:12:00;2.00;;;1.50;;
75216;SDS011;63800;51.972;5.682;2023-01-16T15:14:28;2.60;;;1.60;;
75216;SDS011;63800;51.972;5.682;2023-01-16T15:16:55;1.42;;;1.33;;
75216;SDS011;63800;51.972;5.682;2023-01-16T15:19:57;2.87;;;1.73;;
75216;SDS011;63800;51.972;5.682;2023-01-16T15:22:52;2.45;;;1.60;;
75216;SDS011;63800;51.972;5.682;2023-01-16T15:28:15;1.70;;;1.60;;
75216;SDS011;63800;51.972;5.682;2023-01-16T15:31:05;1.98;;;1.88;;
75216;SDS011;63800;51.972;5.682;2023-01-16T15:33:34;2.63;;;1.90;;
75216;SDS011;63800;51.972;5.682;2023-01-16T15:36:22;2.72;;;1.65;;
75216;SDS011;63800;51.972;5.682;2023-01-16T15:38:52;2.75;;;1.90;;
75216;SDS011;63800;51.972;5.682;2023-01-16T15:41:27;1.88;;;1.75;;
75216;SDS011;63800;51.972;5.682;2023-01-16T15:44:14;3.03;;;2.30;;
75216;SDS011;63800;51.972;5.682;2023-01-16T15:47:05;2.00;;;1.80;;
75216;SDS011;63800;51.972;5.682;2023-01-16T15:49:48;3.38;;;2.40;;
75216;SDS011;63800;51.972;5.682;2023-01-16T15:54:51;3.17;;;2.25;;
75216;SDS011;63800;51.972;5.682;2023-01-16T15:57:17;2.88;;;2.05;;
75216;SDS011;63800;51.972;5.682;2023-01-16T15:59:50;6.28;;;4.47;;
75216;SDS011;63800;51.972;5.682;2023-01-16T16:07:33;4.25;;;2.95;;
75216;SDS011;63800;51.972;5.682;2023-01-16T16:10:00;4.95;;;2.80;;
75216;SDS011;63800;51.972;5.682;2023-01-16T16:12:27;7.35;;;4.22;;
75216;SDS011;63800;51.972;5.682;2023-01-16T16:18:02;3.05;;;2.40;;
75216;SDS011;63800;51.972;5.682;2023-01-16T16:20:42;2.80;;;2.45;;
75216;SDS011;63800;51.972;5.682;2023-01-16T16:23:23;4.30;;;3.00;;
75216;SDS011;63800;51.972;5.682;2023-01-16T16:25:59;6.35;;;3.53;;
75216;SDS011;63800;51.972;5.682;2023-01-16T16:31:06;2.90;;;2.60;;
75216;SDS011;63800;51.972;5.682;2023-01-16T16:33:38;3.08;;;2.33;;
75216;SDS011;63800;51.972;5.682;2023-01-16T16:36:04;3.33;;;2.17;;
75216;SDS011;63800;51.972;5.682;2023-01-16T16:38:31;2.28;;;2.08;;
75216;SDS011;63800;51.972;5.682;2023-01-16T16:43:56;2.20;;;2.00;;
75216;SDS011;63800;51.972;5.682;2023-01-16T16:48:52;2.15;;;1.95;;
75216;SDS011;63800;51.972;5.682;2023-01-16T16:51:40;2.10;;;1.90;;
75216;SDS011;63800;51.972;5.682;2023-01-16T16:54:10;2.17;;;2.08;;
75216;SDS011;63800;51.972;5.682;2023-01-16T16:56:39;2.33;;;2.13;;
75216;SDS011;63800;51.972;5.682;2023-01-16T16:59:19;2.55;;;2.35;;
75216;SDS011;63800;51.972;5.682;2023-01-16T17:01:50;2.13;;;2.00;;
75216;SDS011;63800;51.972;5.682;2023-01-16T17:04:18;2.30;;;2.10;;
75216;SDS011;63800;51.972;5.682;2023-01-16T17:06:44;2.38;;;2.17;;
75216;SDS011;63800;51.972;5.682;2023-01-16T17:09:11;3.55;;;2.88;;
75216;SDS011;63800;51.972;5.682;2023-01-16T17:11:39;2.75;;;2.55;;
75216;SDS011;63800;51.972;5.682;2023-01-16T17:14:07;5.38;;;3.22;;
75216;SDS011;63800;51.972;5.682;2023-01-16T17:16:33;3.78;;;3.22;;
75216;SDS011;63800;51.972;5.682;2023-01-16T17:19:03;4.05;;;3.47;;
75216;SDS011;63800;51.972;5.682;2023-01-16T17:21:35;5.30;;;4.10;;
75216;SDS011;63800;51.972;5.682;2023-01-16T17:24:02;4.25;;;3.83;;
75216;SDS011;63800;51.972;5.682;2023-01-16T17:26:28;4.85;;;3.75;;
75216;SDS011;63800;51.972;5.682;2023-01-16T17:28:53;4.60;;;4.20;;
75216;SDS011;63800;51.972;5.682;2023-01-16T17:31:20;4.07;;;3.67;;
75216;SDS011;63800;51.972;5.682;2023-01-16T17:33:47;4.30;;;3.90;;
75216;SDS011;63800;51.972;5.682;2023-01-16T17:36:16;4.95;;;4.45;;
75216;SDS011;63800;51.972;5.682;2023-01-16T17:38:44;6.53;;;4.38;;
75216;SDS011;63800;51.972;5.682;2023-01-16T17:41:14;4.40;;;3.72;;
75216;SDS011;63800;51.972;5.682;2023-01-16T17:43:49;6.05;;;4.20;;
75216;SDS011;63800;51.972;5.682;2023-01-16T17:46:33;6.50;;;5.07;;
75216;SDS011;63800;51.972;5.682;2023-01-16T17:48:59;6.20;;;5.22;;
75216;SDS011;63800;51.972;5.682;2023-01-16T17:51:24;8.20;;;6.28;;
75216;SDS011;63800;51.972;5.682;2023-01-16T17:53:51;7.20;;;5.88;;
75216;SDS011;63800;51.972;5.682;2023-01-16T17:56:18;6.78;;;6.07;;
75216;SDS011;63800;51.972;5.682;2023-01-16T17:58:45;7.63;;;6.45;;
75216;SDS011;63800;51.972;5.682;2023-01-16T18:01:18;8.30;;;6.28;;
75216;SDS011;63800;51.972;5.682;2023-01-16T18:03:55;7.72;;;5.00;;
75216;SDS011;63800;51.972;5.682;2023-01-16T18:06:25;7.63;;;5.53;;
75216;SDS011;63800;51.972;5.682;2023-01-16T18:08:53;6.15;;;4.60;;
75216;SDS011;63800;51.972;5.682;2023-01-16T18:11:19;5.85;;;3.70;;
75216;SDS011;63800;51.972;5.682;2023-01-16T18:14:05;5.80;;;3.72;;
75216;SDS011;63800;51.972;5.682;2023-01-16T18:16:49;6.35;;;4.72;;
75216;SDS011;63800;51.972;5.682;2023-01-16T18:19:33;6.63;;;4.30;;
75216;SDS011;63800;51.972;5.682;2023-01-16T18:21:59;5.40;;;4.00;;
75216;SDS011;63800;51.972;5.682;2023-01-16T18:24:38;6.15;;;4.25;;
75216;SDS011;63800;51.972;5.682;2023-01-16T18:27:06;5.20;;;4.03;;